Time;durP1;ratioP1;P1;durP2;ratioP2;P2;SDS_P1;SDS_P2;PMS_P1;PMS_P2;Temp;Humidity;BMP_temperature;BMP_pressure;BME280_temperature;BME280_humidity;BME280_pressure;Samples;Min_cycle;Max_cycle;Signal;HPM_P1;HPM_P2
2023/02/05 00:00:59;;;;;;;9.10;2.80;;;;;;;-3.89;99.58;100638.06;273422;1266;22276;-82
2023/02/05 00:07:14;;;;;;;4.60;2.80;;;;;;;-3.95;99.22;100638.83;274075;1257;22211;-82
2023/02/05 00:13:16;;;;;;;20.50;7.30;;;;;;;-3.96;98.95;100644.11;273891;1266;22381;-82
2023/02/05 00:19:26;;;;;;;17.70;7.00;;;;;;;-3.93;98.82;100650.89;269973;1257;22639;-81
2023/02/05 00:25:29;;;;;;;6.30;2.60;;;;;;;-3.92;98.81;100654.76;270206;1256;23698;-83
2023/02/05 00:31:30;;;;;;;10.10;2.70;;;;;;;-3.92;98.83;100669.75;270496;1257;22609;-83
2023/02/05 00:37:32;;;;;;;7.10;3.50;;;;;;;-3.90;99.15;100680.91;273542;1269;23708;-83
2023/02/05 00:43:34;;;;;;;12.60;4.90;;;;;;;-3.94;98.84;100681.85;269957;1268;25522;-84
2023/02/05 00:49:35;;;;;;;9.90;3.50;;;;;;;-4.03;98.60;100685.10;270366;1268;22612;-83
2023/02/05 00:55:37;;;;;;;5.70;2.60;;;;;;;-4.20;98.38;100682.10;270400;1255;23435;-84
2023/02/05 01:01:39;;;;;;;8.30;3.30;;;;;;;-4.38;98.65;100686.17;270747;1259;23219;-85
2023/02/05 01:07:40;;;;;;;11.80;4.00;;;;;;;-4.38;99.43;100690.45;271254;1268;22256;-84
2023/02/05 01:13:42;;;;;;;5.40;3.40;;;;;;;-4.32;99.64;100694.53;270420;1256;22324;-84
2023/02/05 01:19:44;;;;;;;8.10;5.00;;;;;;;-4.25;99.93;100696.87;271007;1257;23287;-85
2023/02/05 01:25:46;;;;;;;7.60;4.60;;;;;;;-4.17;99.98;100689.11;273106;1269;22402;-85
2023/02/05 01:32:08;;;;;;;8.30;4.40;;;;;;;-4.16;99.98;100684.96;273802;1256;22382;-84
2023/02/05 01:38:11;;;;;;;8.20;4.80;;;;;;;-4.11;100.00;100688.16;272285;1268;22215;-83
2023/02/05 01:44:19;;;;;;;10.00;4.50;;;;;;;-4.05;100.00;100690.95;273953;1256;22974;-84
2023/02/05 01:50:26;;;;;;;9.60;4.30;;;;;;;-4.01;100.00;100692.47;274082;1275;22407;-84
2023/02/05 01:56:44;;;;;;;10.60;4.90;;;;;;;-4.02;100.00;100689.89;274020;1257;22239;-84
2023/02/05 02:02:46;;;;;;;9.00;5.60;;;;;;;-4.13;99.99;100687.65;273675;1259;22168;-85
2023/02/05 02:09:07;;;;;;;9.50;5.10;;;;;;;-4.19;100.00;100685.33;274057;1269;22283;-85
2023/02/05 02:15:18;;;;;;;11.90;5.40;;;;;;;-4.29;99.98;100690.38;273885;1256;22366;-87
2023/02/05 02:21:40;;;;;;;14.40;4.90;;;;;;;-4.38;99.97;100695.17;273858;1267;22984;-85
2023/02/05 02:28:12;;;;;;;12.40;6.70;;;;;;;-4.37;100.00;100694.70;273988;1274;23355;-85
2023/02/05 02:34:20;;;;;;;13.50;6.30;;;;;;;-4.33;100.00;100697.62;273719;1269;22226;-85
2023/02/05 02:40:36;;;;;;;14.00;6.20;;;;;;;-4.30;100.00;100699.88;274004;1259;22220;-85
2023/02/05 02:46:45;;;;;;;15.70;7.60;;;;;;;-4.34;100.00;100701.88;273667;1267;22337;-85
2023/02/05 02:52:49;;;;;;;16.60;7.80;;;;;;;-4.38;100.00;100705.48;273320;1259;22367;-84
2023/02/05 02:59:31;;;;;;;17.20;8.70;;;;;;;-4.38;100.00;100707.90;273749;1271;22358;-84
2023/02/05 03:05:34;;;;;;;18.60;6.70;;;;;;;-4.37;100.00;100712.89;274034;1269;22220;-85
2023/02/05 03:11:36;;;;;;;22.50;8.40;;;;;;;-4.41;99.99;100718.52;273799;1257;22335;-84
2023/02/05 03:17:39;;;;;;;14.00;7.80;;;;;;;-4.44;99.80;100718.34;272993;1256;22370;-85
2023/02/05 03:23:41;;;;;;;27.00;9.30;;;;;;;-4.47;99.74;100719.89;270362;1260;22564;-84
2023/02/05 03:29:45;;;;;;;13.20;5.80;;;;;;;-4.50;99.54;100716.19;271820;1264;22463;-85
2023/02/05 03:36:30;;;;;;;19.30;7.80;;;;;;;-4.54;99.33;100719.73;273088;1261;22655;-84
2023/02/05 03:43:01;;;;;;;23.80;8.30;;;;;;;-4.59;99.08;100729.41;269941;1259;25431;-84
2023/02/05 03:49:26;;;;;;;18.80;8.70;;;;;;;-4.61;99.22;100724.63;270425;1269;22498;-84
2023/02/05 03:55:32;;;;;;;41.20;14.50;;;;;;;-4.58;99.19;100726.71;271900;1254;22213;-85
2023/02/05 04:01:35;;;;;;;26.60;9.30;;;;;;;-4.58;99.07;100727.94;274046;1272;22227;-84
2023/02/05 04:07:36;;;;;;;16.10;5.40;;;;;;;-4.57;99.05;100719.99;273484;1269;23315;-84
2023/02/05 04:13:39;;;;;;;10.10;4.80;;;;;;;-4.60;99.04;100714.00;273683;1269;23108;-84
2023/02/05 04:19:42;;;;;;;11.00;5.00;;;;;;;-4.69;98.68;100713.15;273430;1268;22534;-84
2023/02/05 04:25:45;;;;;;;14.00;6.10;;;;;;;-4.83;98.46;100719.70;273969;1269;22229;-84
2023/02/05 04:31:50;;;;;;;10.80;5.50;;;;;;;-4.96;98.35;100722.43;272469;1259;22335;-84
2023/02/05 04:37:52;;;;;;;9.60;5.50;;;;;;;-5.06;98.37;100729.21;273818;1267;22208;-84
2023/02/05 04:44:14;;;;;;;10.90;5.30;;;;;;;-5.20;98.26;100736.03;274057;1257;22191;-84
2023/02/05 04:50:17;;;;;;;11.50;5.50;;;;;;;-5.31;98.24;100741.19;273471;1269;28604;-84
2023/02/05 04:56:18;;;;;;;11.00;5.20;;;;;;;-5.46;98.05;100748.45;271452;1260;22629;-83
2023/02/05 05:02:21;;;;;;;10.70;5.00;;;;;;;-5.58;98.09;100747.88;269984;1269;22526;-84
2023/02/05 05:08:25;;;;;;;10.90;5.20;;;;;;;-5.76;97.99;100747.94;269913;1256;25335;-83
2023/02/05 05:14:27;;;;;;;10.50;4.50;;;;;;;-5.94;97.98;100752.11;270396;1269;24260;-84
2023/02/05 05:20:29;;;;;;;13.50;4.90;;;;;;;-6.08;98.08;100754.27;270114;1269;22650;-83
2023/02/05 05:26:31;;;;;;;9.50;4.90;;;;;;;-6.27;98.04;100753.24;272371;1259;22371;-83
2023/02/05 05:32:32;;;;;;;11.00;5.50;;;;;;;-6.54;97.82;100757.60;271328;1269;22987;-84
2023/02/05 05:38:34;;;;;;;13.00;5.50;;;;;;;-6.62;98.17;100769.80;272637;1258;22401;-84
2023/02/05 05:44:38;;;;;;;12.30;5.40;;;;;;;-6.75;98.07;100775.91;272496;1269;22179;-86
2023/02/05 05:50:41;;;;;;;15.10;7.10;;;;;;;-6.83;98.05;100791.80;273506;1269;23184;-84
2023/02/05 05:56:43;;;;;;;21.70;9.60;;;;;;;-6.87;98.64;100801.89;272875;1254;22199;-84
2023/02/05 06:02:45;;;;;;;33.20;15.70;;;;;;;-6.98;98.36;100814.96;271229;1258;22548;-83
2023/02/05 06:08:47;;;;;;;30.20;13.40;;;;;;;-7.03;99.09;100830.64;270799;1269;22567;-84
2023/02/05 06:14:49;;;;;;;28.50;13.50;;;;;;;-7.02;99.28;100847.36;270063;1269;22573;-84
2023/02/05 06:20:50;;;;;;;34.70;15.00;;;;;;;-7.03;99.33;100851.77;269554;1269;22543;-83
2023/02/05 06:26:52;;;;;;;29.00;15.20;;;;;;;-7.12;98.98;100857.66;270583;1269;22304;-84
2023/02/05 06:32:54;;;;;;;26.30;12.50;;;;;;;-7.23;98.71;100861.50;273589;1273;22388;-84
2023/02/05 06:38:56;;;;;;;33.00;14.00;;;;;;;-7.15;99.43;100871.52;273232;1270;22302;-84
2023/02/05 06:45:09;;;;;;;37.40;17.40;;;;;;;-6.93;99.95;100870.64;273525;1269;22905;-84
2023/02/05 06:51:16;;;;;;;34.30;16.60;;;;;;;-6.69;100.00;100873.22;271335;1261;22613;-84
2023/02/05 06:57:17;;;;;;;35.00;15.80;;;;;;;-6.48;100.00;100879.52;269897;1270;22644;-82
2023/02/05 07:03:20;;;;;;;38.50;16.50;;;;;;;-6.24;100.00;100885.77;273193;1271;22381;-83
2023/02/05 07:09:24;;;;;;;37.10;17.70;;;;;;;-6.04;100.00;100887.46;272994;1271;22209;-84
2023/02/05 07:15:25;;;;;;;52.70;21.50;;;;;;;-5.93;100.00;100895.98;272822;1269;22581;-83
2023/02/05 07:21:27;;;;;;;42.00;17.40;;;;;;;-5.92;100.00;100903.23;272980;1269;22362;-83
2023/02/05 07:27:31;;;;;;;41.10;17.60;;;;;;;-5.84;99.99;100915.98;273806;1269;22288;-84
2023/02/05 07:33:35;;;;;;;46.00;18.60;;;;;;;-5.79;99.87;100929.20;273489;1266;22376;-84
2023/02/05 07:39:37;;;;;;;42.40;18.10;;;;;;;-5.68;99.93;100935.85;270925;1269;22233;-85
2023/02/05 07:45:56;;;;;;;40.60;17.70;;;;;;;-5.75;99.66;100940.02;273591;1267;24289;-85
2023/02/05 07:52:08;;;;;;;44.00;19.00;;;;;;;-5.70;99.87;100947.31;273703;1272;22240;-84
2023/02/05 07:58:10;;;;;;;36.20;16.90;;;;;;;-5.49;100.00;100953.15;271579;1269;22557;-84
2023/02/05 08:04:12;;;;;;;35.60;13.90;;;;;;;-5.28;100.00;100950.50;271115;1269;22441;-85
2023/02/05 08:10:14;;;;;;;39.10;15.80;;;;;;;-5.07;100.00;100951.27;270738;1266;22726;-84
2023/02/05 08:16:16;;;;;;;30.70;14.80;;;;;;;-4.91;100.00;100950.71;273029;1269;23292;-84
2023/02/05 08:22:39;;;;;;;38.60;17.00;;;;;;;-4.73;100.00;100950.88;270841;1269;22575;-82
2023/02/05 08:28:48;;;;;;;36.70;16.20;;;;;;;-4.47;100.00;100948.92;270423;1267;24254;-83
2023/02/05 08:34:50;;;;;;;44.50;21.80;;;;;;;-4.32;99.60;100946.71;270696;1270;22567;-84
2023/02/05 08:40:52;;;;;;;42.10;20.20;;;;;;;-4.35;99.20;100944.83;270482;1269;22296;-84
2023/02/05 08:46:54;;;;;;;38.00;19.10;;;;;;;-4.28;99.55;100948.73;270580;1259;22217;-84
2023/02/05 08:52:56;;;;;;;48.30;20.80;;;;;;;-4.13;99.42;100952.23;272732;1270;22427;-85
2023/02/05 08:58:58;;;;;;;39.00;16.70;;;;;;;-4.07;98.70;100953.48;271967;1269;22413;-84
2023/02/05 09:05:00;;;;;;;35.00;16.30;;;;;;;-4.00;98.57;100954.76;272960;1267;22353;-85
2023/02/05 09:11:03;;;;;;;34.20;17.00;;;;;;;-3.91;98.54;100959.99;273270;1269;22178;-84
2023/02/05 09:17:06;;;;;;;33.60;16.70;;;;;;;-3.83;97.97;100968.16;271018;1270;24264;-84
2023/02/05 09:23:10;;;;;;;29.80;14.20;;;;;;;-3.81;97.73;100970.35;271049;1258;22631;-83
2023/02/05 09:29:29;;;;;;;33.80;15.20;;;;;;;-3.75;97.64;100977.23;272536;1260;122972;-85
2023/02/05 09:35:32;;;;;;;30.30;13.80;;;;;;;-3.68;97.51;100980.80;271702;1260;22340;-84
2023/02/05 09:41:42;;;;;;;26.30;12.90;;;;;;;-3.66;97.04;100980.77;269640;1270;23883;-83
2023/02/05 09:48:17;;;;;;;28.80;12.30;;;;;;;-3.72;96.65;100983.55;269960;1269;22555;-84
2023/02/05 09:54:24;;;;;;;15.60;7.90;;;;;;;-3.72;96.79;100977.55;270753;1267;22406;-86
2023/02/05 10:00:33;;;;;;;17.30;7.20;;;;;;;-3.73;96.36;100975.17;273795;1269;22211;-84
2023/02/05 10:06:57;;;;;;;15.00;6.90;;;;;;;-3.71;95.71;100980.00;273665;1260;22268;-86
2023/02/05 10:13:20;;;;;;;14.60;6.40;;;;;;;-3.66;95.53;100979.34;273534;1257;22213;-86
2023/02/05 10:20:06;;;;;;;14.80;6.10;;;;;;;-3.64;95.39;100984.70;271338;1260;22536;-85
2023/02/05 10:26:12;;;;;;;14.90;5.60;;;;;;;-3.65;95.03;100979.57;271216;1267;22116;-85
2023/02/05 10:32:42;;;;;;;15.50;6.80;;;;;;;-3.68;94.72;100981.66;272392;1257;22564;-86
2023/02/05 10:38:46;;;;;;;19.90;7.60;;;;;;;-3.62;94.99;100979.96;270988;1257;23566;-85
2023/02/05 10:44:49;;;;;;;9.90;4.30;;;;;;;-3.59;95.50;100985.17;270815;1269;25319;-85
2023/02/05 10:50:59;;;;;;;8.50;3.90;;;;;;;-3.62;95.74;100980.73;269445;1269;22618;-85
2023/02/05 10:57:01;;;;;;;11.10;4.40;;;;;;;-3.68;95.28;100979.46;270149;1257;22550;-85
2023/02/05 11:03:04;;;;;;;12.10;5.30;;;;;;;-3.70;95.14;100978.98;270727;1254;23392;-86
2023/02/05 11:09:24;;;;;;;14.00;5.20;;;;;;;-3.68;94.89;100977.80;270401;1269;22561;-86
2023/02/05 11:15:32;;;;;;;9.40;4.00;;;;;;;-3.70;94.49;100977.50;270720;1260;23372;-85
2023/02/05 11:21:47;;;;;;;10.90;4.40;;;;;;;-3.72;94.25;100971.35;271307;1257;23359;-86
2023/02/05 11:27:51;;;;;;;15.10;5.80;;;;;;;-3.54;94.25;100964.45;271174;1259;22389;-86
2023/02/05 11:34:35;;;;;;;10.20;4.10;;;;;;;-3.39;94.24;100969.23;274011;1269;23287;-86
2023/02/05 11:40:55;;;;;;;11.20;5.00;;;;;;;-3.30;94.41;100971.99;273197;1269;22489;-87
2023/02/05 11:47:00;;;;;;;14.30;6.80;;;;;;;-3.21;94.68;100967.39;272552;1269;22580;-85
2023/02/05 11:53:19;;;;;;;16.10;7.60;;;;;;;-3.29;94.48;100965.90;270049;1269;22677;-88
2023/02/05 11:59:21;;;;;;;19.80;7.40;;;;;;;-3.32;94.93;100963.48;270870;1269;22534;-86
2023/02/05 12:05:28;;;;;;;23.40;9.20;;;;;;;-3.05;95.12;100959.15;272129;1260;23849;-87
2023/02/05 12:18:18;;;;;;;13.00;5.80;;;;;;;-2.72;93.52;100958.09;270671;1261;23805;-87
2023/02/05 12:24:24;;;;;;;11.20;5.20;;;;;;;-2.53;93.00;100950.66;271910;1269;22556;-88
2023/02/05 12:30:36;;;;;;;10.40;5.20;;;;;;;-2.52;91.99;100948.01;272939;1269;23442;-87
2023/02/05 12:36:49;;;;;;;9.80;5.60;;;;;;;-2.49;91.71;100949.45;272295;1269;22573;-87
2023/02/05 12:43:01;;;;;;;11.30;5.30;;;;;;;-2.45;91.18;100947.26;270501;1263;22591;-87
2023/02/05 12:49:06;;;;;;;10.60;5.20;;;;;;;-2.42;90.65;100935.89;271401;1269;22302;-87
2023/02/05 12:55:40;;;;;;;8.60;4.50;;;;;;;-2.41;89.99;100927.23;271217;1269;22959;-86
2023/02/05 13:01:50;;;;;;;11.40;5.30;;;;;;;-2.35;89.56;100926.94;271758;1269;22432;-86
2023/02/05 13:08:04;;;;;;;12.10;4.60;;;;;;;-2.29;88.86;100927.95;270851;1269;22608;-86
2023/02/05 13:14:15;;;;;;;5.80;3.30;;;;;;;-2.30;89.14;100926.71;271541;1265;23155;-87
2023/02/05 13:33:15;;;;;;;9.70;3.90;;;;;;;-2.49;87.28;100935.51;272706;1270;25512;-87
2023/02/05 13:39:42;;;;;;;9.70;4.70;;;;;;;-2.49;87.24;100929.55;273364;1270;22343;-86
2023/02/05 13:46:03;;;;;;;11.00;4.70;;;;;;;-2.60;88.05;100937.61;273512;1270;22510;-84
2023/02/05 13:52:14;;;;;;;8.30;3.70;;;;;;;-2.74;88.35;100928.27;272487;1270;22424;-84
2023/02/05 13:58:23;;;;;;;14.90;5.20;;;;;;;-2.81;88.54;100934.30;272811;1270;23416;-86
2023/02/05 14:04:47;;;;;;;13.20;5.00;;;;;;;-2.85;87.67;100940.11;272641;1258;22578;-84
2023/02/05 14:11:01;;;;;;;11.70;4.70;;;;;;;-2.90;87.64;100944.47;273007;1260;23421;-84
2023/02/05 14:17:32;;;;;;;13.20;5.40;;;;;;;-3.06;88.08;100952.20;272759;1260;22219;-85
2023/02/05 14:23:47;;;;;;;9.20;4.60;;;;;;;-3.22;87.78;100951.14;273442;1269;22575;-84
2023/02/05 14:29:51;;;;;;;10.50;5.10;;;;;;;-3.37;87.57;100947.00;271956;1259;22374;-85
2023/02/05 14:36:18;;;;;;;14.50;6.30;;;;;;;-3.42;87.44;100951.02;271770;1269;22575;-85
2023/02/05 14:42:21;;;;;;;15.70;6.60;;;;;;;-3.40;87.18;100949.98;270848;1269;25464;-86
2023/02/05 14:48:28;;;;;;;13.00;6.60;;;;;;;-3.39;86.74;100945.39;270770;1268;23608;-84
2023/02/05 14:54:37;;;;;;;15.40;6.20;;;;;;;-3.43;86.88;100946.10;270593;1263;26647;-86
2023/02/05 15:00:53;;;;;;;;;;;;;;;;;;;;;
2023/02/05 15:07:23;;;;;;;13.70;6.80;;;;;;;-3.54;86.28;100947.02;271360;1269;24292;-84
2023/02/05 15:13:25;;;;;;;17.10;6.90;;;;;;;-3.62;86.33;100951.91;271370;1269;22376;-84
2023/02/05 15:19:28;;;;;;;15.00;7.30;;;;;;;-3.68;86.46;100960.85;272686;1269;22557;-84
2023/02/05 15:25:40;;;;;;;19.90;7.40;;;;;;;-3.73;86.15;100959.29;271982;1260;22581;-85
2023/02/05 15:31:48;;;;;;;15.70;6.80;;;;;;;-3.81;85.96;100958.04;271608;1269;22938;-86
2023/02/05 15:38:01;;;;;;;12.20;5.90;;;;;;;-3.84;86.06;100965.63;270759;1269;22587;-85
2023/02/05 15:44:03;;;;;;;21.10;8.40;;;;;;;-3.87;86.09;100967.91;272776;1269;22544;-85
2023/02/05 15:50:06;;;;;;;23.90;11.10;;;;;;;-3.84;86.26;100966.25;273298;1269;22286;-85
2023/02/05 15:56:30;;;;;;;23.70;10.30;;;;;;;-3.83;86.42;100970.67;273177;1266;23897;-85
2023/02/05 16:02:32;;;;;;;21.60;8.80;;;;;;;-3.81;86.61;100975.79;272886;1269;22356;-84
2023/02/05 16:08:35;;;;;;;17.40;8.50;;;;;;;-3.76;87.02;100980.14;272353;1256;22622;-84
2023/02/05 16:14:37;;;;;;;18.80;8.60;;;;;;;-3.73;87.01;100982.80;270973;1259;23776;-87
2023/02/05 16:20:41;;;;;;;17.60;9.00;;;;;;;-3.80;86.40;100978.77;270629;1269;22320;-88
2023/02/05 16:27:08;;;;;;;18.40;8.80;;;;;;;-3.83;86.74;100975.20;270545;1263;22502;-87
2023/02/05 16:33:33;;;;;;;21.00;9.20;;;;;;;-3.87;86.85;100977.25;270794;1257;22202;-87
2023/02/05 16:39:42;;;;;;;25.00;10.80;;;;;;;-3.89;87.03;100981.64;272209;1268;28361;-87
2023/02/05 16:46:06;;;;;;;22.60;10.40;;;;;;;-3.93;86.93;100984.14;270783;1262;22657;-85
2023/02/05 16:52:26;;;;;;;30.90;11.90;;;;;;;-3.99;86.84;100991.98;263105;1269;10001781;-86
2023/02/05 16:58:36;;;;;;;30.90;12.40;;;;;;;-4.02;86.78;100999.16;273696;1269;22196;-85
2023/02/05 17:04:41;;;;;;;32.50;13.30;;;;;;;-4.03;87.18;101000.58;273588;1269;22219;-86
2023/02/05 17:10:53;;;;;;;29.20;12.20;;;;;;;-4.02;87.16;101006.33;273441;1269;22217;-86
2023/02/05 17:17:16;;;;;;;26.00;12.90;;;;;;;-4.05;87.06;101015.67;273517;1269;23122;-85
2023/02/05 17:23:38;;;;;;;38.20;14.80;;;;;;;-4.08;87.12;101022.72;273401;1269;22422;-85
2023/02/05 17:29:40;;;;;;;36.40;16.60;;;;;;;-4.12;87.17;101021.83;273959;1260;22268;-85
2023/02/05 17:35:42;;;;;;;51.50;20.50;;;;;;;-4.14;87.28;101022.20;273414;1256;23466;-85
2023/02/05 17:48:05;;;;;;;38.60;18.30;;;;;;;-4.06;87.51;101021.86;273549;1265;22419;-85
2023/02/05 17:54:16;;;;;;;45.50;20.60;;;;;;;-4.04;87.67;101027.64;273484;1269;23305;-86
2023/02/05 18:00:43;;;;;;;39.10;19.20;;;;;;;-3.99;87.94;101031.92;273375;1268;22385;-85
2023/02/05 18:06:47;;;;;;;47.80;22.40;;;;;;;-3.99;87.75;101030.11;273587;1269;23492;-84
2023/02/05 18:12:49;;;;;;;51.60;22.90;;;;;;;-3.98;87.80;101033.89;273270;1261;22476;-86
2023/02/05 18:18:51;;;;;;;47.70;22.20;;;;;;;-3.98;87.97;101036.13;273170;1256;22324;-85
2023/02/05 18:24:55;;;;;;;50.70;22.80;;;;;;;-3.94;88.17;101042.91;273406;1260;22225;-85
2023/02/05 18:31:03;;;;;;;52.60;22.80;;;;;;;-3.94;88.14;101050.52;273379;1269;22306;-85
2023/02/05 18:37:25;;;;;;;51.70;21.10;;;;;;;-3.96;88.35;101047.11;273748;1269;23561;-85
2023/02/05 18:43:27;;;;;;;45.50;22.00;;;;;;;-4.00;88.07;101048.39;273652;1269;22263;-86
2023/02/05 18:49:29;;;;;;;65.80;25.60;;;;;;;-4.04;88.03;101057.34;273623;1272;22219;-85
2023/02/05 18:55:34;;;;;;;61.30;27.50;;;;;;;-4.06;88.12;101065.86;271196;1269;22649;-86
2023/02/05 19:01:56;;;;;;;70.70;30.60;;;;;;;-4.04;88.53;101070.48;272446;1269;23531;-85
2023/02/05 19:07:58;;;;;;;80.30;32.70;;;;;;;-4.03;88.69;101076.84;270825;1269;23801;-85
2023/02/05 19:14:22;;;;;;;67.00;27.20;;;;;;;-4.03;88.65;101081.49;271992;1269;23102;-84
2023/02/05 19:20:24;;;;;;;80.40;30.10;;;;;;;-4.11;88.74;101071.28;272671;1269;22547;-85
2023/02/05 19:26:27;;;;;;;76.60;30.80;;;;;;;-4.14;89.04;101070.83;271958;1263;23707;-84
2023/02/05 19:32:29;;;;;;;83.00;33.50;;;;;;;-4.15;89.23;101080.70;272426;1269;25094;-85
2023/02/05 19:38:34;;;;;;;73.30;30.00;;;;;;;-4.15;89.56;101087.23;271952;1259;22370;-85
2023/02/05 19:44:36;;;;;;;76.70;31.60;;;;;;;-4.15;89.59;101090.08;273683;1269;22494;-84
2023/02/05 19:50:38;;;;;;;75.00;34.80;;;;;;;-4.16;89.92;101085.64;273528;1269;22411;-85
2023/02/05 19:56:43;;;;;;;76.60;33.60;;;;;;;-4.15;89.99;101078.09;273664;1258;22229;-84
2023/02/05 20:03:05;;;;;;;83.40;34.00;;;;;;;-4.13;90.18;101076.79;272700;1260;22985;-84
2023/02/05 20:09:09;;;;;;;86.10;35.60;;;;;;;-4.12;90.41;101081.51;273653;1260;23005;-84
2023/02/05 20:15:27;;;;;;;85.00;37.60;;;;;;;-4.13;90.41;101083.46;273620;1259;22880;-85
2023/02/05 20:21:29;;;;;;;79.70;36.10;;;;;;;-4.18;90.53;101088.02;273701;1258;22195;-84
2023/02/05 20:27:31;;;;;;;86.40;35.00;;;;;;;-4.20;90.53;101088.01;273422;1270;22451;-84
2023/02/05 20:33:33;;;;;;;88.20;36.40;;;;;;;-4.30;90.68;101083.73;273815;1269;22224;-85
2023/02/05 20:39:38;;;;;;;84.00;38.90;;;;;;;-4.28;91.19;101085.44;273556;1259;22311;-86
2023/02/05 20:45:40;;;;;;;83.30;35.00;;;;;;;-4.25;91.37;101095.67;273898;1269;22373;-85
2023/02/05 20:51:58;;;;;;;89.50;36.90;;;;;;;-4.28;91.43;101100.25;273861;1259;23543;-85
2023/02/05 20:58:00;;;;;;;86.90;37.90;;;;;;;-4.24;91.64;101115.43;273502;1259;22323;-85
2023/02/05 21:04:03;;;;;;;97.10;40.20;;;;;;;-4.21;91.76;101128.91;273590;1264;22256;-85
2023/02/05 21:10:05;;;;;;;86.90;39.70;;;;;;;-4.19;91.92;101133.08;273604;1259;22241;-85
2023/02/05 21:16:08;;;;;;;96.20;42.10;;;;;;;-4.16;92.05;101132.83;273604;1269;22201;-85
2023/02/05 21:22:10;;;;;;;95.30;42.10;;;;;;;-4.17;92.06;101137.95;273930;1270;23187;-85
2023/02/05 21:28:12;;;;;;;92.70;41.40;;;;;;;-4.16;92.38;101139.63;273395;1260;337044;-85
2023/02/05 21:34:34;;;;;;;84.40;36.30;;;;;;;-4.15;92.42;101144.25;273882;1259;22220;-85
2023/02/05 21:40:37;;;;;;;95.30;39.80;;;;;;;-4.14;92.57;101149.35;273369;1269;22666;-85
2023/02/05 21:46:39;;;;;;;95.40;40.70;;;;;;;-4.18;92.42;101149.89;273484;1256;22550;-85
2023/02/05 21:52:41;;;;;;;98.20;40.90;;;;;;;-4.23;92.59;101163.63;271492;1269;22564;-86
2023/02/05 21:58:44;;;;;;;97.50;41.30;;;;;;;-4.24;92.80;101177.92;273430;1259;22329;-85
2023/02/05 22:04:53;;;;;;;102.80;39.80;;;;;;;-4.22;93.11;101178.52;272873;1260;22533;-85
2023/02/05 22:10:59;;;;;;;95.30;39.90;;;;;;;-4.21;93.22;101183.94;271605;1269;22240;-85
2023/02/05 22:17:01;;;;;;;105.70;41.70;;;;;;;-4.20;93.29;101196.63;272754;1269;23289;-85
2023/02/05 22:23:23;;;;;;;99.60;41.00;;;;;;;-4.21;93.34;101201.58;272606;1260;22429;-86
2023/02/05 22:29:25;;;;;;;114.20;44.30;;;;;;;-4.20;93.75;101205.52;270307;1269;22540;-86
2023/02/05 22:35:29;;;;;;;97.20;39.10;;;;;;;-4.20;93.71;101204.56;271125;1269;22330;-84
2023/02/05 22:41:34;;;;;;;105.70;44.70;;;;;;;-4.27;93.51;101200.55;270546;1270;24243;-84
2023/02/05 22:47:36;;;;;;;75.90;35.00;;;;;;;-4.28;93.85;101203.80;269874;1269;23910;-85
2023/02/05 22:53:38;;;;;;;107.60;46.70;;;;;;;-4.31;93.72;101196.65;269840;1259;22672;-84
2023/02/05 22:59:40;;;;;;;102.60;44.30;;;;;;;-4.37;93.79;101194.25;269403;1258;23265;-83
2023/02/05 23:05:41;;;;;;;112.00;46.40;;;;;;;-4.40;93.76;101196.64;270034;1269;23674;-83
2023/02/05 23:11:43;;;;;;;108.50;47.80;;;;;;;-4.41;94.17;101198.13;270449;1269;22592;-84
2023/02/05 23:17:45;;;;;;;115.00;47.80;;;;;;;-4.36;94.31;101197.24;273057;1270;22191;-84
2023/02/05 23:23:48;;;;;;;114.00;46.30;;;;;;;-4.33;94.45;101206.50;273335;1259;22242;-83
2023/02/05 23:29:50;;;;;;;105.50;47.00;;;;;;;-4.30;94.56;101214.00;271899;1269;22542;-84
2023/02/05 23:35:54;;;;;;;117.90;49.00;;;;;;;-4.29;94.65;101213.66;270757;1269;23012;-83
2023/02/05 23:41:56;;;;;;;115.10;48.40;;;;;;;-4.28;94.73;101220.44;270727;1259;22550;-82
2023/02/05 23:48:00;;;;;;;104.40;45.10;;;;;;;-4.28;94.86;101215.73;273695;1257;22395;-83
2023/02/05 23:54:03;;;;;;;100.10;45.50;;;;;;;-4.28;94.80;101220.97;273831;1260;22344;-84
